Santa Juliana, Brazil
Current Conditions -  °F | °C
As of 7:00 PM on Saturday 25 Oct 2014 (Local Time) from SBUR Reporting Station
Light Rain Light Rain  
Wind Chill: 66°   Ceiling: 300
Heat Index: 66°   Visibility: 1.8mi
Dew Point: 66°   Wind: 8mph
Humidity: 100%   Direction: 170°S
Pressure: 30"   Gusts: NA
Location:  19.31°S, 47.53°W
Report Text: SBUR 252100Z 17007KT 3000 -RA BR BKN003 BKN009 OVC070 19/19 Q1016
Loading
Personal Weather Stations






























Interactive Weather Map
Tropical Storm Tracking
New forecast layout! Learn more

10-Day Weather Forecast

Advertisements
Track Severe Weather on mobile